Time;durP1;ratioP1;P1;durP2;ratioP2;P2;SDS_P1;SDS_P2;PMS_P1;PMS_P2;Temp;Humidity;BMP_temperature;BMP_pressure;BME280_temperature;BME280_humidity;BME280_pressure;Samples;Min_cycle;Max_cycle;Signal;HPM_P1;HPM_P2
2023/06/27 00:01:12;;;;;;;;;1.67;1.67;;;;;;;;5068577;28;45704;-76
2023/06/27 00:03:38;;;;;;;;;3.67;2.67;;;;;;;;5068270;28;46780;-77
2023/06/27 00:06:04;;;;;;;;;5.00;4.00;;;;;;;;5054009;28;45879;-79
2023/06/27 00:08:31;;;;;;;;;3.00;1.33;;;;;;;;5048468;28;45327;-80
2023/06/27 00:10:56;;;;;;;;;2.00;2.00;;;;;;;;5072265;28;45587;-78
2023/06/27 00:13:22;;;;;;;;;3.00;3.00;;;;;;;;5074057;28;45441;-77
2023/06/27 00:15:52;;;;;;;;;3.00;2.00;;;;;;;;5055343;28;46314;-78
2023/06/27 00:18:17;;;;;;;;;2.00;2.00;;;;;;;;5063043;28;45320;-78
2023/06/27 00:20:43;;;;;;;;;4.00;3.67;;;;;;;;5074554;28;45500;-77
2023/06/27 00:23:16;;;;;;;;;0.33;0.33;;;;;;;;5075406;28;45280;-77
2023/06/27 00:25:41;;;;;;;;;2.33;1.00;;;;;;;;5075319;28;45412;-78
2023/06/27 00:28:06;;;;;;;;;2.00;1.00;;;;;;;;5075323;28;45366;-76
2023/06/27 00:30:31;;;;;;;;;1.00;1.00;;;;;;;;5055673;28;46202;-78
2023/06/27 00:32:57;;;;;;;;;1.00;1.00;;;;;;;;5056668;28;47051;-76
2023/06/27 00:35:22;;;;;;;;;1.00;1.00;;;;;;;;5055962;28;45436;-76
2023/06/27 00:37:47;;;;;;;;;2.00;0.67;;;;;;;;5058502;28;45457;-77
2023/06/27 00:40:13;;;;;;;;;3.00;2.00;;;;;;;;5056760;28;46653;-74
2023/06/27 00:42:38;;;;;;;;;2.33;1.67;;;;;;;;5074841;28;45973;-75
2023/06/27 00:45:04;;;;;;;;;1.00;1.00;;;;;;;;5055411;28;45402;-76
2023/06/27 00:47:29;;;;;;;;;1.00;1.00;;;;;;;;5056737;28;45704;-77
2023/06/27 00:49:54;;;;;;;;;1.33;1.33;;;;;;;;5056619;28;45536;-77
2023/06/27 00:52:20;;;;;;;;;2.00;1.00;;;;;;;;5052170;28;48322;-76
2023/06/27 00:54:45;;;;;;;;;3.00;0.67;;;;;;;;5058939;28;45697;-77
2023/06/27 00:57:11;;;;;;;;;1.33;1.33;;;;;;;;5066117;28;45541;-75
2023/06/27 00:59:37;;;;;;;;;2.00;2.00;;;;;;;;5067099;28;45438;-76
2023/06/27 01:02:03;;;;;;;;;2.33;2.00;;;;;;;;5070227;28;46309;-76
2023/06/27 01:04:28;;;;;;;;;1.00;1.00;;;;;;;;5074383;28;45746;-76
2023/06/27 01:07:17;;;;;;;;;3.00;3.00;;;;;;;;5073296;27;45399;-76
2023/06/27 01:09:50;;;;;;;;;3.00;3.00;;;;;;;;5073200;28;45710;-76
2023/06/27 01:12:20;;;;;;;;;4.33;3.33;;;;;;;;5074741;28;45741;-75
2023/06/27 01:14:46;;;;;;;;;2.33;2.33;;;;;;;;5057048;28;45441;-76
2023/06/27 01:17:12;;;;;;;;;1.00;1.00;;;;;;;;5074174;27;45591;-75
2023/06/27 01:19:43;;;;;;;;;6.00;4.67;;;;;;;;5073928;27;45877;-75
2023/06/27 01:22:11;;;;;;;;;2.00;2.00;;;;;;;;5074384;28;46396;-76
2023/06/27 01:24:37;;;;;;;;;4.00;4.00;;;;;;;;5074344;28;45864;-75
2023/06/27 01:27:02;;;;;;;;;4.00;4.00;;;;;;;;5074363;28;45959;-76
2023/06/27 01:29:29;;;;;;;;;10.00;6.33;;;;;;;;5074884;28;45428;-76
2023/06/27 01:31:59;;;;;;;;;5.00;3.33;;;;;;;;5064484;28;46935;-76
2023/06/27 01:34:32;;;;;;;;;8.00;6.33;;;;;;;;5074466;28;45401;-76
2023/06/27 01:37:19;;;;;;;;;18.00;18.00;;;;;;;;5056620;28;45444;-77
2023/06/27 01:39:47;;;;;;;;;15.00;10.33;;;;;;;;5074981;28;45402;-76
2023/06/27 01:42:15;;;;;;;;;4.67;4.67;;;;;;;;5061217;27;46457;-76
2023/06/27 01:44:43;;;;;;;;;7.00;5.00;;;;;;;;5055945;28;46059;-76
2023/06/27 01:47:09;;;;;;;;;10.00;9.00;;;;;;;;5056141;28;45688;-74
2023/06/27 01:49:34;;;;;;;;;7.67;7.33;;;;;;;;5071668;28;45457;-74
2023/06/27 01:51:59;;;;;;;;;5.00;4.33;;;;;;;;5062898;28;45402;-76
2023/06/27 01:54:25;;;;;;;;;8.33;4.67;;;;;;;;5055778;28;45508;-76
2023/06/27 01:56:50;;;;;;;;;12.67;11.00;;;;;;;;5055905;28;45366;-76
2023/06/27 01:59:15;;;;;;;;;13.00;9.00;;;;;;;;5071795;27;45550;-76
2023/06/27 02:01:41;;;;;;;;;9.67;6.33;;;;;;;;5053817;28;48435;-75
2023/06/27 02:04:06;;;;;;;;;12.33;10.67;;;;;;;;5073815;28;45891;-75
2023/06/27 02:06:31;;;;;;;;;2.00;2.00;;;;;;;;5072660;28;45905;-75
2023/06/27 02:08:57;;;;;;;;;4.33;3.33;;;;;;;;5073612;28;46275;-75
2023/06/27 02:11:22;;;;;;;;;4.33;4.33;;;;;;;;5055503;28;47161;-75
2023/06/27 02:13:47;;;;;;;;;16.67;15.00;;;;;;;;5062285;28;45568;-75
2023/06/27 02:16:12;;;;;;;;;1.67;1.67;;;;;;;;5072318;28;45679;-76
2023/06/27 02:18:38;;;;;;;;;4.00;3.00;;;;;;;;5072013;28;45774;-76
2023/06/27 02:21:03;;;;;;;;;14.33;8.00;;;;;;;;5055800;28;47421;-77
2023/06/27 02:23:28;;;;;;;;;4.00;3.00;;;;;;;;5061492;28;45488;-77
2023/06/27 02:25:53;;;;;;;;;4.33;3.00;;;;;;;;5076136;28;45529;-76
2023/06/27 02:28:19;;;;;;;;;12.00;10.00;;;;;;;;5057890;28;46133;-75
2023/06/27 02:30:44;;;;;;;;;4.33;4.33;;;;;;;;5072343;28;45686;-75
2023/06/27 02:33:09;;;;;;;;;3.00;3.00;;;;;;;;5056090;28;45536;-75
2023/06/27 02:35:35;;;;;;;;;10.00;6.33;;;;;;;;5075608;28;46055;-76
2023/06/27 02:38:00;;;;;;;;;2.00;2.00;;;;;;;;5057499;28;45946;-75
2023/06/27 02:40:28;;;;;;;;;1.33;1.33;;;;;;;;5076246;28;46142;-75
2023/06/27 02:42:53;;;;;;;;;7.67;3.33;;;;;;;;5075463;28;45430;-76
2023/06/27 02:45:18;;;;;;;;;4.33;2.00;;;;;;;;5067475;27;45539;-77
2023/06/27 02:47:43;;;;;;;;;3.00;2.00;;;;;;;;5071179;28;45690;-74
2023/06/27 02:50:09;;;;;;;;;8.33;6.67;;;;;;;;5075145;28;45752;-75
2023/06/27 02:52:34;;;;;;;;;8.00;6.00;;;;;;;;5074582;27;45388;-78
2023/06/27 02:54:59;;;;;;;;;10.33;6.00;;;;;;;;5075968;28;45695;-75
2023/06/27 02:57:25;;;;;;;;;4.67;2.00;;;;;;;;5075371;28;45390;-75
2023/06/27 02:59:50;;;;;;;;;1.00;1.00;;;;;;;;5076216;28;46428;-76
2023/06/27 03:02:15;;;;;;;;;1.67;1.67;;;;;;;;5076226;28;45328;-75
2023/06/27 03:04:40;;;;;;;;;1.00;1.00;;;;;;;;5075909;28;45489;-77
2023/06/27 03:07:06;;;;;;;;;3.00;3.00;;;;;;;;5076387;28;45361;-75
2023/06/27 03:09:32;;;;;;;;;3.00;3.00;;;;;;;;5038817;28;46670;-76
2023/06/27 03:11:57;;;;;;;;;6.67;4.67;;;;;;;;5076152;28;45423;-77
2023/06/27 03:14:23;;;;;;;;;10.00;8.33;;;;;;;;5076451;28;45408;-75
2023/06/27 03:16:48;;;;;;;;;6.67;2.67;;;;;;;;5057598;28;47174;-76
2023/06/27 03:19:13;;;;;;;;;3.00;3.00;;;;;;;;5057471;28;47220;-77
2023/06/27 03:21:38;;;;;;;;;2.00;1.00;;;;;;;;5076164;28;45623;-76
2023/06/27 03:24:04;;;;;;;;;5.00;3.67;;;;;;;;5057670;28;45730;-74
2023/06/27 03:26:30;;;;;;;;;4.00;4.00;;;;;;;;5057458;28;46014;-75
2023/06/27 03:28:55;;;;;;;;;3.33;3.33;;;;;;;;5070574;28;45470;-76
2023/06/27 03:31:20;;;;;;;;;3.67;3.67;;;;;;;;5067924;28;45553;-75
2023/06/27 03:33:46;;;;;;;;;2.00;2.00;;;;;;;;5076396;28;45678;-77
2023/06/27 03:36:11;;;;;;;;;4.00;2.00;;;;;;;;5076307;28;45757;-76
2023/06/27 03:38:36;;;;;;;;;3.33;1.33;;;;;;;;5076274;28;45513;-75
2023/06/27 03:41:02;;;;;;;;;3.67;3.00;;;;;;;;5075633;28;45420;-74
2023/06/27 03:43:27;;;;;;;;;4.33;3.67;;;;;;;;5075875;28;45370;-76
2023/06/27 03:45:52;;;;;;;;;4.00;2.67;;;;;;;;5075751;28;45719;-76
2023/06/27 03:48:17;;;;;;;;;3.33;2.33;;;;;;;;5075411;28;45403;-76
2023/06/27 03:50:43;;;;;;;;;2.00;2.00;;;;;;;;5075767;28;45669;-77
2023/06/27 03:53:08;;;;;;;;;2.00;2.00;;;;;;;;5061820;27;45556;-74
2023/06/27 03:55:33;;;;;;;;;1.67;1.00;;;;;;;;5075219;28;45611;-77
2023/06/27 03:57:59;;;;;;;;;2.33;1.33;;;;;;;;5074227;28;45677;-75
2023/06/27 04:00:24;;;;;;;;;2.33;2.33;;;;;;;;5056651;28;45736;-76
2023/06/27 04:02:49;;;;;;;;;3.67;3.33;;;;;;;;5075682;28;45654;-75
2023/06/27 04:05:15;;;;;;;;;4.00;2.00;;;;;;;;5070785;28;46466;-75
2023/06/27 04:07:43;;;;;;;;;3.33;3.00;;;;;;;;5073002;28;46772;-76
2023/06/27 04:10:08;;;;;;;;;4.00;2.33;;;;;;;;5075658;27;45555;-77
2023/06/27 04:12:33;;;;;;;;;2.00;1.00;;;;;;;;5057871;28;45727;-76
2023/06/27 04:14:58;;;;;;;;;3.00;2.00;;;;;;;;5067060;28;46024;-76
2023/06/27 04:17:24;;;;;;;;;3.00;3.00;;;;;;;;5064521;28;46015;-74
2023/06/27 04:19:49;;;;;;;;;3.33;2.00;;;;;;;;5060078;28;45542;-76
2023/06/27 04:22:14;;;;;;;;;2.00;2.00;;;;;;;;5064777;28;46071;-77
2023/06/27 04:24:39;;;;;;;;;3.33;3.00;;;;;;;;5064934;28;46055;-76
2023/06/27 04:27:05;;;;;;;;;4.00;3.00;;;;;;;;5049129;28;46044;-76
2023/06/27 04:29:30;;;;;;;;;4.00;4.00;;;;;;;;5075052;28;45696;-76
2023/06/27 04:31:55;;;;;;;;;2.00;2.00;;;;;;;;5074854;28;45391;-76
2023/06/27 04:34:20;;;;;;;;;1.00;1.00;;;;;;;;5071336;28;45745;-78
2023/06/27 04:36:46;;;;;;;;;9.33;8.67;;;;;;;;5074897;28;45770;-75
2023/06/27 04:39:11;;;;;;;;;16.33;11.67;;;;;;;;5074967;28;45854;-76
2023/06/27 04:41:36;;;;;;;;;12.67;11.33;;;;;;;;5075015;27;45370;-77
2023/06/27 04:44:02;;;;;;;;;11.67;8.33;;;;;;;;5074995;27;45396;-76
2023/06/27 04:46:28;;;;;;;;;18.33;15.33;;;;;;;;5074877;28;45597;-77
2023/06/27 04:48:56;;;;;;;;;10.67;7.67;;;;;;;;5074769;28;45530;-78
2023/06/27 04:51:21;;;;;;;;;6.00;2.00;;;;;;;;5074199;28;45476;-77
2023/06/27 04:53:47;;;;;;;;;5.33;5.00;;;;;;;;5074388;28;45717;-76
2023/06/27 04:56:12;;;;;;;;;3.33;3.33;;;;;;;;5057543;28;46040;-78
2023/06/27 04:58:37;;;;;;;;;3.00;3.00;;;;;;;;5056288;28;45999;-79
2023/06/27 05:01:03;;;;;;;;;10.33;8.00;;;;;;;;5073334;28;45852;-80
2023/06/27 05:03:29;;;;;;;;;5.33;5.00;;;;;;;;5074120;28;45797;-81
2023/06/27 05:05:54;;;;;;;;;3.00;2.00;;;;;;;;5073743;28;46173;-82
2023/06/27 05:08:19;;;;;;;;;12.00;7.00;;;;;;;;5055847;28;45507;-81
2023/06/27 05:10:45;;;;;;;;;7.67;5.00;;;;;;;;5055918;28;45784;-77
2023/06/27 05:13:10;;;;;;;;;7.00;6.00;;;;;;;;5069488;28;45626;-79
2023/06/27 05:15:35;;;;;;;;;3.67;2.00;;;;;;;;5072856;28;46086;-79
2023/06/27 05:18:07;;;;;;;;;4.33;2.00;;;;;;;;5055739;28;45897;-81
2023/06/27 05:20:32;;;;;;;;;4.33;3.33;;;;;;;;5073571;28;45668;-81
2023/06/27 05:22:58;;;;;;;;;3.00;3.00;;;;;;;;5046359;28;46031;-82
2023/06/27 05:25:26;;;;;;;;;4.00;4.00;;;;;;;;5059238;28;45685;-78
2023/06/27 05:27:51;;;;;;;;;3.75;3.00;;;;;;;;5065017;28;45366;-78
2023/06/27 05:30:16;;;;;;;;;4.00;3.00;;;;;;;;5066779;28;45573;-80
2023/06/27 05:32:41;;;;;;;;;5.00;5.00;;;;;;;;5049712;28;46112;-77
2023/06/27 05:35:07;;;;;;;;;6.25;4.75;;;;;;;;5043049;28;46205;-79
2023/06/27 05:37:32;;;;;;;;;4.33;3.67;;;;;;;;5036404;28;45489;-78
2023/06/27 05:39:58;;;;;;;;;8.67;5.00;;;;;;;;5029787;28;45476;-78
2023/06/27 05:42:23;;;;;;;;;8.00;5.00;;;;;;;;5037503;28;45539;-78
2023/06/27 05:44:48;;;;;;;;;8.75;4.50;;;;;;;;5046926;28;46121;-77
2023/06/27 05:47:13;;;;;;;;;5.50;4.25;;;;;;;;5052449;28;45564;-78
2023/06/27 05:49:39;;;;;;;;;3.50;3.50;;;;;;;;5030075;28;45292;-76
2023/06/27 05:52:04;;;;;;;;;4.50;4.50;;;;;;;;5061838;28;45347;-77
2023/06/27 05:54:29;;;;;;;;;5.00;3.00;;;;;;;;5067957;28;45805;-77
2023/06/27 05:56:55;;;;;;;;;4.00;3.00;;;;;;;;5041639;28;45298;-77
2023/06/27 05:59:20;;;;;;;;;3.25;2.00;;;;;;;;5048564;28;45497;-76
2023/06/27 06:01:46;;;;;;;;;3.50;3.25;;;;;;;;5063861;28;45311;-78
2023/06/27 06:04:12;;;;;;;;;0.00;0.00;;;;;;;;5058546;28;46626;-77
2023/06/27 06:06:37;;;;;;;;;3.50;2.75;;;;;;;;5057045;28;45861;-77
2023/06/27 06:09:03;;;;;;;;;3.50;2.00;;;;;;;;5053593;28;45431;-76
2023/06/27 06:11:28;;;;;;;;;3.00;3.00;;;;;;;;5034743;28;45891;-76
2023/06/27 06:13:54;;;;;;;;;3.50;3.00;;;;;;;;5057530;28;45910;-77
2023/06/27 06:16:19;;;;;;;;;5.75;3.25;;;;;;;;5067069;28;45826;-77
2023/06/27 06:18:44;;;;;;;;;4.50;2.00;;;;;;;;5054142;28;45830;-76
2023/06/27 06:21:12;;;;;;;;;2.00;2.00;;;;;;;;5044052;28;45917;-77
2023/06/27 06:23:37;;;;;;;;;4.00;2.00;;;;;;;;5034685;28;47646;-77
2023/06/27 06:26:02;;;;;;;;;2.25;2.00;;;;;;;;5070794;28;45633;-77
2023/06/27 06:28:28;;;;;;;;;3.50;2.00;;;;;;;;5073031;28;45383;-77
2023/06/27 06:30:53;;;;;;;;;1.50;1.50;;;;;;;;5059232;28;45472;-77
2023/06/27 06:33:18;;;;;;;;;2.25;1.00;;;;;;;;5035626;28;46928;-78
2023/06/27 06:35:43;;;;;;;;;3.75;2.00;;;;;;;;5046039;28;45395;-77
2023/06/27 06:38:09;;;;;;;;;3.00;1.50;;;;;;;;5052309;28;45347;-76
2023/06/27 06:40:34;;;;;;;;;2.00;2.00;;;;;;;;5051039;28;45559;-77
2023/06/27 06:43:00;;;;;;;;;4.50;3.75;;;;;;;;5034844;28;47928;-77
2023/06/27 06:45:25;;;;;;;;;4.50;3.50;;;;;;;;5052475;28;45809;-76
2023/06/27 06:47:52;;;;;;;;;3.50;3.00;;;;;;;;5062777;28;45627;-81
2023/06/27 06:50:17;;;;;;;;;2.00;2.00;;;;;;;;5057840;28;45768;-78
2023/06/27 06:52:43;;;;;;;;;4.25;3.00;;;;;;;;5058090;28;45830;-80
2023/06/27 06:55:09;;;;;;;;;3.50;2.00;;;;;;;;5051996;28;45690;-78
2023/06/27 06:57:34;;;;;;;;;5.00;2.75;;;;;;;;5050658;28;45650;-80
2023/06/27 06:59:59;;;;;;;;;4.00;2.75;;;;;;;;5042178;28;46863;-83
2023/06/27 07:02:28;;;;;;;;;4.75;2.00;;;;;;;;5050869;28;46267;-83
2023/06/27 07:04:53;;;;;;;;;5.00;2.25;;;;;;;;5056187;28;45407;-83
2023/06/27 07:07:19;;;;;;;;;4.25;3.75;;;;;;;;5046862;28;45819;-83
2023/06/27 07:09:44;;;;;;;;;2.00;2.00;;;;;;;;5056642;28;45475;-83
2023/06/27 07:12:09;;;;;;;;;5.50;4.50;;;;;;;;5064729;28;45440;-83
2023/06/27 07:14:34;;;;;;;;;4.25;2.50;;;;;;;;5049028;28;45603;-81
2023/06/27 07:17:00;;;;;;;;;3.75;2.00;;;;;;;;5063156;28;45491;-84
2023/06/27 07:19:25;;;;;;;;;2.50;1.75;;;;;;;;5064306;28;45327;-82
2023/06/27 07:21:50;;;;;;;;;2.00;2.00;;;;;;;;5069949;28;46295;-82
2023/06/27 07:24:16;;;;;;;;;3.50;2.00;;;;;;;;5055843;28;45438;-83
2023/06/27 07:26:41;;;;;;;;;2.25;2.25;;;;;;;;5071394;28;45360;-83
2023/06/27 07:29:06;;;;;;;;;5.00;3.50;;;;;;;;5067340;28;45563;-82
2023/06/27 07:31:32;;;;;;;;;3.25;2.50;;;;;;;;5052176;28;48450;-81
2023/06/27 07:33:57;;;;;;;;;2.25;2.25;;;;;;;;5062659;28;45771;-79
2023/06/27 07:36:22;;;;;;;;;5.00;2.25;;;;;;;;5068146;28;45676;-79
2023/06/27 07:38:47;;;;;;;;;2.50;2.50;;;;;;;;5054041;28;45514;-82
2023/06/27 07:41:13;;;;;;;;;3.00;1.50;;;;;;;;5043306;28;48060;-82
2023/06/27 07:43:41;;;;;;;;;1.25;1.25;;;;;;;;5064619;28;45417;-82
2023/06/27 07:46:06;;;;;;;;;2.50;2.50;;;;;;;;5061636;28;45490;-82
2023/06/27 07:48:32;;;;;;;;;4.00;2.00;;;;;;;;5046037;28;45530;-82
2023/06/27 07:50:57;;;;;;;;;3.50;1.75;;;;;;;;5061696;28;45723;-82
2023/06/27 07:53:22;;;;;;;;;2.50;1.75;;;;;;;;5060600;28;45743;-82
2023/06/27 07:55:47;;;;;;;;;1.50;1.50;;;;;;;;5061468;28;45682;-81
2023/06/27 07:58:13;;;;;;;;;3.75;3.00;;;;;;;;5060979;28;45743;-82
2023/06/27 08:00:39;;;;;;;;;3.00;1.75;;;;;;;;5058567;28;46861;-82
2023/06/27 08:03:04;;;;;;;;;4.00;3.00;;;;;;;;5038039;28;45569;-82
2023/06/27 08:05:31;;;;;;;;;2.25;2.25;;;;;;;;5057179;28;45553;-84
2023/06/27 08:07:57;;;;;;;;;1.75;1.00;;;;;;;;5054956;28;45736;-83
2023/06/27 08:10:25;;;;;;;;;2.00;2.00;;;;;;;;5060285;28;45821;-81
2023/06/27 08:12:50;;;;;;;;;3.25;1.00;;;;;;;;5063321;28;45459;-81
2023/06/27 08:15:17;;;;;;;;;0.50;0.50;;;;;;;;5069602;28;45663;-81
2023/06/27 08:17:42;;;;;;;;;1.00;1.00;;;;;;;;5073108;28;45555;-82
2023/06/27 08:20:08;;;;;;;;;2.75;2.00;;;;;;;;5047718;28;47926;-79
2023/06/27 08:22:33;;;;;;;;;4.00;2.00;;;;;;;;5067129;28;45453;-82
2023/06/27 08:24:58;;;;;;;;;2.00;2.00;;;;;;;;5058105;28;45863;-82
2023/06/27 08:27:24;;;;;;;;;1.25;1.25;;;;;;;;5038930;28;46030;-86
2023/06/27 08:29:52;;;;;;;;;3.50;2.00;;;;;;;;5051931;28;45311;-83
2023/06/27 08:32:21;;;;;;;;;2.00;1.25;;;;;;;;5047662;28;46021;-84
2023/06/27 08:34:48;;;;;;;;;4.00;1.25;;;;;;;;5055388;28;45781;-85
2023/06/27 08:37:13;;;;;;;;;2.00;2.00;;;;;;;;5027172;28;45769;-83
2023/06/27 08:39:39;;;;;;;;;2.00;2.00;;;;;;;;5028611;28;47883;-78
2023/06/27 08:42:05;;;;;;;;;1.00;1.00;;;;;;;;5043035;28;45703;-79
2023/06/27 08:44:30;;;;;;;;;1.00;1.00;;;;;;;;5062596;28;45383;-80
2023/06/27 08:47:01;;;;;;;;;1.00;1.00;;;;;;;;5067202;28;45557;-80
2023/06/27 08:49:26;;;;;;;;;1.00;1.00;;;;;;;;5036413;28;45960;-81
2023/06/27 08:51:54;;;;;;;;;1.00;1.00;;;;;;;;5043686;28;45554;-80
2023/06/27 08:54:24;;;;;;;;;1.00;1.00;;;;;;;;5046412;28;45677;-79
2023/06/27 08:56:49;;;;;;;;;1.00;1.00;;;;;;;;5054803;28;45631;-80
2023/06/27 08:59:19;;;;;;;;;0.75;0.75;;;;;;;;5058210;28;46349;-79
2023/06/27 09:01:44;;;;;;;;;1.50;1.50;;;;;;;;5051624;28;45442;-82
2023/06/27 09:04:10;;;;;;;;;1.75;1.75;;;;;;;;5053705;28;45780;-80
2023/06/27 09:06:35;;;;;;;;;3.00;3.00;;;;;;;;5040704;28;45975;-78
2023/06/27 09:09:00;;;;;;;;;1.25;1.25;;;;;;;;5064186;28;47001;-79
2023/06/27 09:11:26;;;;;;;;;0.50;0.50;;;;;;;;5065822;28;45691;-79
2023/06/27 09:13:51;;;;;;;;;1.25;0.75;;;;;;;;5064943;28;45777;-79
2023/06/27 09:16:17;;;;;;;;;1.00;1.00;;;;;;;;5050365;28;45697;-80
2023/06/27 09:18:43;;;;;;;;;2.00;1.00;;;;;;;;5054407;28;45736;-81
2023/06/27 09:21:09;;;;;;;;;1.25;1.25;;;;;;;;5060057;28;45525;-79
2023/06/27 09:23:34;;;;;;;;;1.00;1.00;;;;;;;;5045199;28;45672;-80
2023/06/27 09:26:07;;;;;;;;;0.50;0.50;;;;;;;;5053954;28;46124;-82
2023/06/27 09:28:42;;;;;;;;;1.00;1.00;;;;;;;;5067899;28;46246;-82
2023/06/27 09:31:08;;;;;;;;;2.00;0.50;;;;;;;;5063720;27;45481;-82
2023/06/27 09:33:33;;;;;;;;;1.00;1.00;;;;;;;;5057025;28;45466;-81
2023/06/27 09:35:58;;;;;;;;;1.00;1.00;;;;;;;;5059889;28;45453;-80
2023/06/27 09:38:23;;;;;;;;;4.00;1.50;;;;;;;;5051448;28;45604;-80
2023/06/27 09:41:00;;;;;;;;;2.50;2.50;;;;;;;;5054159;28;45421;-80
2023/06/27 09:43:25;;;;;;;;;2.00;1.00;;;;;;;;5063535;28;45546;-81
2023/06/27 09:45:56;;;;;;;;;1.50;0.00;;;;;;;;5060008;28;45582;-83
2023/06/27 09:48:22;;;;;;;;;1.75;0.75;;;;;;;;5074125;27;46644;-81
2023/06/27 09:50:47;;;;;;;;;1.50;1.50;;;;;;;;5071762;28;46082;-80
2023/06/27 09:53:13;;;;;;;;;1.00;1.00;;;;;;;;5069733;28;45852;-80
2023/06/27 09:55:44;;;;;;;;;1.00;1.00;;;;;;;;5052923;28;46982;-81
2023/06/27 09:58:10;;;;;;;;;2.00;1.00;;;;;;;;5049512;28;45651;-82
2023/06/27 10:00:37;;;;;;;;;4.00;1.00;;;;;;;;5054883;28;45703;-80
2023/06/27 10:03:08;;;;;;;;;2.50;1.00;;;;;;;;5060159;27;45776;-79
2023/06/27 10:05:33;;;;;;;;;1.50;1.50;;;;;;;;5061842;28;45779;-84
2023/06/27 10:07:58;;;;;;;;;3.50;2.00;;;;;;;;5060342;28;45666;-81
2023/06/27 10:10:26;;;;;;;;;1.50;1.25;;;;;;;;5057382;28;45486;-81
2023/06/27 10:12:56;;;;;;;;;1.75;1.25;;;;;;;;5049695;28;45445;-85
2023/06/27 10:15:21;;;;;;;;;2.00;2.00;;;;;;;;5055430;28;46131;-84
2023/06/27 10:18:00;;;;;;;;;2.00;1.00;;;;;;;;5051870;27;46027;-88
2023/06/27 10:20:25;;;;;;;;;1.00;1.00;;;;;;;;5047297;28;46137;-82
2023/06/27 10:23:12;;;;;;;;;;;;;;;;;;;;;
2023/06/27 10:25:43;;;;;;;;;1.00;1.00;;;;;;;;5046850;28;73305;-85
2023/06/27 10:28:25;;;;;;;;;2.75;1.75;;;;;;;;5034806;28;45618;-85
2023/06/27 10:31:07;;;;;;;;;;;;;;;;;;;;;
2023/06/27 10:33:41;;;;;;;;;4.00;2.50;;;;;;;;5060942;28;70406;-83
2023/06/27 10:36:09;;;;;;;;;2.75;2.75;;;;;;;;5039073;28;45933;-82
2023/06/27 10:38:38;;;;;;;;;2.00;2.00;;;;;;;;5048228;28;45749;-84
2023/06/27 10:41:06;;;;;;;;;1.50;1.25;;;;;;;;5052549;28;45770;-83
2023/06/27 10:43:51;;;;;;;;;12.00;9.00;;;;;;;;5038678;28;45328;-84
2023/06/27 10:46:24;;;;;;;;;4.25;1.50;;;;;;;;5051238;28;45517;-91
2023/06/27 10:48:55;;;;;;;;;4.00;1.75;;;;;;;;5040914;28;47199;-81
2023/06/27 10:51:44;;;;;;;;;;;;;;;;;;;;;
2023/06/27 10:54:26;;;;;;;;;1.00;1.00;;;;;;;;5049026;28;68623;-85
2023/06/27 10:56:53;;;;;;;;;2.00;2.00;;;;;;;;5038330;28;46017;-82
2023/06/27 10:59:19;;;;;;;;;1.50;1.50;;;;;;;;5056694;28;46135;-83
2023/06/27 11:01:52;;;;;;;;;1.00;1.00;;;;;;;;5045473;28;45414;-83
2023/06/27 11:07:22;;;;;;;;;2.50;2.50;;;;;;;;5066324;28;45495;-83
2023/06/27 11:10:13;;;;;;;;;2.50;1.25;;;;;;;;5039973;28;45469;-83
2023/06/27 11:12:38;;;;;;;;;3.00;2.00;;;;;;;;5038846;28;45457;-84
2023/06/27 11:15:04;;;;;;;;;1.75;1.75;;;;;;;;5044030;28;45790;-80
2023/06/27 11:17:35;;;;;;;;;1.00;1.00;;;;;;;;5053619;28;45585;-83
2023/06/27 11:20:00;;;;;;;;;3.00;2.00;;;;;;;;5063026;28;45527;-81
2023/06/27 11:22:26;;;;;;;;;1.00;1.00;;;;;;;;5059978;28;45581;-84
2023/06/27 11:24:51;;;;;;;;;1.00;1.00;;;;;;;;5059341;28;45730;-82
2023/06/27 11:27:19;;;;;;;;;2.00;2.00;;;;;;;;5053008;28;46982;-84
2023/06/27 11:29:44;;;;;;;;;3.00;3.00;;;;;;;;5069426;28;46869;-84
2023/06/27 11:32:09;;;;;;;;;4.25;3.00;;;;;;;;5060601;28;45863;-82
2023/06/27 11:34:36;;;;;;;;;2.25;2.25;;;;;;;;5062771;28;45678;-83
2023/06/27 11:37:01;;;;;;;;;1.00;1.00;;;;;;;;5067756;28;45550;-83
2023/06/27 11:39:26;;;;;;;;;2.00;2.00;;;;;;;;5061875;28;46179;-82
2023/06/27 11:41:57;;;;;;;;;3.75;1.75;;;;;;;;5067702;28;45796;-81
2023/06/27 11:44:29;;;;;;;;;2.25;2.25;;;;;;;;5051508;28;45493;-81
2023/06/27 11:46:55;;;;;;;;;1.00;1.00;;;;;;;;5071612;28;45473;-81
2023/06/27 11:49:21;;;;;;;;;3.00;1.75;;;;;;;;5055533;28;46863;-81
2023/06/27 11:51:46;;;;;;;;;2.50;2.50;;;;;;;;5041753;28;45276;-83
2023/06/27 11:54:15;;;;;;;;;2.75;1.00;;;;;;;;5064627;28;45386;-79
2023/06/27 11:56:40;;;;;;;;;2.00;2.00;;;;;;;;5067048;28;45860;-82
2023/06/27 11:59:06;;;;;;;;;3.50;2.50;;;;;;;;5036903;28;47872;-80
2023/06/27 12:01:33;;;;;;;;;2.50;1.75;;;;;;;;5061968;28;45755;-82
2023/06/27 12:03:59;;;;;;;;;3.00;1.25;;;;;;;;5039025;28;45394;-81
2023/06/27 12:06:28;;;;;;;;;1.00;1.00;;;;;;;;5068676;28;45515;-82
2023/06/27 12:08:54;;;;;;;;;3.00;1.75;;;;;;;;5072072;28;47341;-81
2023/06/27 12:11:25;;;;;;;;;2.50;1.50;;;;;;;;5051548;28;45489;-81
2023/06/27 12:13:51;;;;;;;;;2.00;1.50;;;;;;;;5027951;28;45394;-84
2023/06/27 12:16:27;;;;;;;;;3.00;2.00;;;;;;;;5047744;28;46611;-83
2023/06/27 12:18:53;;;;;;;;;2.00;2.00;;;;;;;;5046095;28;47030;-82
2023/06/27 12:21:18;;;;;;;;;2.00;1.25;;;;;;;;5066523;28;45505;-81
2023/06/27 12:23:44;;;;;;;;;5.75;2.50;;;;;;;;5055332;28;45424;-83
2023/06/27 12:26:09;;;;;;;;;1.00;1.00;;;;;;;;5067783;28;45601;-83
2023/06/27 12:28:53;;;;;;;;;2.00;2.00;;;;;;;;5066384;28;45820;-85
2023/06/27 12:31:18;;;;;;;;;3.00;3.00;;;;;;;;5059022;28;45715;-81
2023/06/27 12:33:43;;;;;;;;;2.00;2.00;;;;;;;;5057825;28;45756;-82
2023/06/27 12:36:08;;;;;;;;;1.50;1.25;;;;;;;;5056232;28;45909;-82
2023/06/27 12:38:34;;;;;;;;;3.00;2.00;;;;;;;;5060888;28;45992;-81
2023/06/27 12:40:59;;;;;;;;;3.25;3.25;;;;;;;;5057969;28;45552;-81
2023/06/27 12:43:24;;;;;;;;;3.75;2.00;;;;;;;;5060246;28;45624;-81
2023/06/27 12:45:59;;;;;;;;;2.75;1.25;;;;;;;;5057507;28;45557;-82
2023/06/27 12:48:25;;;;;;;;;4.75;1.25;;;;;;;;5058847;28;46571;-83
2023/06/27 12:50:50;;;;;;;;;2.25;2.25;;;;;;;;5066035;28;45589;-80
2023/06/27 12:53:15;;;;;;;;;2.50;2.50;;;;;;;;5068486;28;45377;-81
2023/06/27 12:55:40;;;;;;;;;2.50;2.00;;;;;;;;5057496;28;45521;-81
2023/06/27 12:58:06;;;;;;;;;3.75;2.50;;;;;;;;5069412;28;45504;-83
2023/06/27 13:00:37;;;;;;;;;1.75;1.00;;;;;;;;5052807;28;45665;-81
2023/06/27 13:03:02;;;;;;;;;1.25;1.25;;;;;;;;5056610;28;45384;-80
2023/06/27 13:05:27;;;;;;;;;3.00;3.00;;;;;;;;5054708;28;45705;-81
2023/06/27 13:07:53;;;;;;;;;5.00;3.00;;;;;;;;5054786;28;45786;-80
2023/06/27 13:10:18;;;;;;;;;1.00;1.00;;;;;;;;5062648;28;45563;-80
2023/06/27 13:12:43;;;;;;;;;2.50;2.50;;;;;;;;5061057;28;45835;-81
2023/06/27 13:15:09;;;;;;;;;1.00;1.00;;;;;;;;5049380;28;45844;-81
2023/06/27 13:17:34;;;;;;;;;1.75;1.00;;;;;;;;5067232;27;45613;-81
2023/06/27 13:20:00;;;;;;;;;3.50;2.00;;;;;;;;5056335;28;45459;-81
2023/06/27 13:22:25;;;;;;;;;2.00;2.00;;;;;;;;5073030;27;45545;-82
2023/06/27 13:24:50;;;;;;;;;1.00;1.00;;;;;;;;5049055;28;45861;-80
2023/06/27 13:27:17;;;;;;;;;2.25;2.25;;;;;;;;5070412;28;47080;-79
2023/06/27 13:29:42;;;;;;;;;2.00;2.00;;;;;;;;5064461;28;45601;-81
2023/06/27 13:32:08;;;;;;;;;4.25;2.50;;;;;;;;5061366;28;45451;-80
2023/06/27 13:34:33;;;;;;;;;2.00;2.00;;;;;;;;5063368;28;46118;-79
2023/06/27 13:36:59;;;;;;;;;4.00;4.00;;;;;;;;5054452;28;45531;-79
2023/06/27 13:39:24;;;;;;;;;2.25;2.25;;;;;;;;5069970;28;45701;-83
2023/06/27 13:41:50;;;;;;;;;2.00;2.00;;;;;;;;5070834;28;45455;-80
2023/06/27 13:44:15;;;;;;;;;3.00;3.00;;;;;;;;5068857;28;45620;-81
2023/06/27 13:46:40;;;;;;;;;3.75;2.25;;;;;;;;5056985;28;45604;-80
2023/06/27 13:49:08;;;;;;;;;2.25;2.25;;;;;;;;5067435;28;45389;-80
2023/06/27 13:51:34;;;;;;;;;7.00;3.00;;;;;;;;5070076;27;45919;-80
2023/06/27 13:53:59;;;;;;;;;2.00;2.00;;;;;;;;5063968;28;45407;-80
2023/06/27 13:56:24;;;;;;;;;3.00;2.00;;;;;;;;5054411;28;45916;-81
2023/06/27 13:58:49;;;;;;;;;2.00;2.00;;;;;;;;5065975;28;45421;-84
2023/06/27 14:01:15;;;;;;;;;5.50;5.50;;;;;;;;5078074;28;45355;-83
2023/06/27 14:03:40;;;;;;;;;8.50;4.50;;;;;;;;5069184;28;45600;-84
2023/06/27 14:06:05;;;;;;;;;8.00;5.50;;;;;;;;5068567;28;45683;-83
2023/06/27 14:08:31;;;;;;;;;11.00;6.00;;;;;;;;5064049;27;45532;-83
2023/06/27 14:10:56;;;;;;;;;9.00;5.00;;;;;;;;5063350;28;45456;-80
2023/06/27 14:13:22;;;;;;;;;2.50;2.50;;;;;;;;5052737;27;45436;-80
2023/06/27 14:15:47;;;;;;;;;2.00;2.00;;;;;;;;5065556;28;46871;-79
2023/06/27 14:18:13;;;;;;;;;3.50;3.00;;;;;;;;5063338;28;46223;-78
2023/06/27 14:20:38;;;;;;;;;3.00;3.00;;;;;;;;5068669;28;45480;-80
2023/06/27 14:23:04;;;;;;;;;2.25;2.25;;;;;;;;5074447;27;45489;-79
2023/06/27 14:25:30;;;;;;;;;4.00;4.00;;;;;;;;5066159;28;48195;-80
2023/06/27 14:27:55;;;;;;;;;2.50;2.50;;;;;;;;5065562;28;45447;-79
2023/06/27 14:30:21;;;;;;;;;3.75;2.00;;;;;;;;5056530;28;45499;-82
2023/06/27 14:32:46;;;;;;;;;3.00;1.75;;;;;;;;5062121;28;45445;-82
2023/06/27 14:35:12;;;;;;;;;2.50;2.00;;;;;;;;5068998;28;45794;-84
2023/06/27 14:37:37;;;;;;;;;1.25;1.25;;;;;;;;5069580;27;45328;-84
2023/06/27 14:40:03;;;;;;;;;3.00;3.00;;;;;;;;5066779;28;45186;-85
2023/06/27 14:42:28;;;;;;;;;2.25;1.25;;;;;;;;5072955;28;44997;-85
2023/06/27 14:44:54;;;;;;;;;3.75;2.75;;;;;;;;5071879;28;45376;-84